M/T Arcadia — SY7849 — position and weather

sailwx.info

Track history (hours):
 
Tides and Currents Weather Stations Pressure Air Temp Water Temp Dewpoint Dewpoint Depression Visibility Wind Speed Wind Dir Waves Ship Positions

M/T Arcadia

Last reported at 2016-Aug-24 15:05 UTC. Time now 2016-Aug-27 06:24 UTC.
Position N 37°10' E 023°39'.

Length 76 m; draft 4.7 m.

Type: Tanker. MMSI: 240560000.

Date/timePositionNaut miles runAvg speedWind from/ knotsBaromVisibWave heightAir tempDewpointWater temp
2016-Aug-24 15:05N 37°10' E 023°39'4 7.7
2016-Aug-24 14:34N 37°14' E 023°38'8 7.9
2016-Aug-24 13:33N 37°22' E 023°36'8 8.1
2016-Aug-24 12:33N 37°29' E 023°34'8 7.8
2016-Aug-24 11:33N 37°36' E 023°28'8 7.7
2016-Aug-24 10:34N 37°40' E 023°20'8 7.7
2016-Aug-24 09:33N 37°46' E 023°14'8 8.1
2016-Aug-24 08:33N 37°53' E 023°08'3 0.2
2016-Aug-23 15:24N 37°55' E 023°05'0 0.5
2016-Aug-23 14:33N 37°55' E 023°06'0 0.1
2016-Aug-23 13:33N 37°55' E 023°06'6 6.1
2016-Aug-23 12:33N 37°50' E 023°11'9 8.9
2016-Aug-23 11:34N 37°43' E 023°17'8 7.7
2016-Aug-23 10:34N 37°38' E 023°25'9 8.7
2016-Aug-23 09:34N 37°32' E 023°32'8 8.2
2016-Aug-23 08:33N 37°24' E 023°36'8 7.9
2016-Aug-23 07:34N 37°17' E 023°39'8 7.5
2016-Aug-23 06:27N 37°08' E 023°41'7 7.3
2016-Aug-23 05:29N 37°01' E 023°42'7 7.7
2016-Aug-23 04:32N 36°54' E 023°44'8 8.1
2016-Aug-23 03:33N 36°46' E 023°46'8 8.2
2016-Aug-23 02:33N 36°38' E 023°48'9 8.4
2016-Aug-23 01:31N 36°30' E 023°50'40 1.2
2016-Aug-21 16:24N 37°09' E 023°41'6 7.2
2016-Aug-21 15:33N 37°15' E 023°39'7 7.2
2016-Aug-21 14:33N 37°22' E 023°37'8 7.6
2016-Aug-21 13:33N 37°29' E 023°36'8 7.7
2016-Aug-21 12:33N 37°37' E 023°34'7 7.5
2016-Aug-21 11:33N 37°39' E 023°25'6 6.5
2016-Aug-21 10:33N 37°42' E 023°17'8 7.8
2016-Aug-21 09:33N 37°49' E 023°12'8 7.7
2016-Aug-21 08:33N 37°54' E 023°06'1 0.1
2016-Aug-20 16:33N 37°55' E 023°05'0 0.0
2016-Aug-20 15:33N 37°55' E 023°05'0 0.0
2016-Aug-20 14:33N 37°55' E 023°05'1 0.8
2016-Aug-20 13:33N 37°55' E 023°06'0 0.0
2016-Aug-20 12:33N 37°55' E 023°06'0 0.0
2016-Aug-20 11:33N 37°55' E 023°06'1 0.9
2016-Aug-20 10:33N 37°54' E 023°07'9 9.0
2016-Aug-20 09:33N 37°47' E 023°14'9 8.6
2016-Aug-20 08:33N 37°40' E 023°20'8 8.2
2016-Aug-20 07:34N 37°35' E 023°29'8 7.7
2016-Aug-20 06:33N 37°29' E 023°35'8 8.1
2016-Aug-20 05:33N 37°21' E 023°37'8 7.9
2016-Aug-20 04:33N 37°14' E 023°40'8 7.7
2016-Aug-20 03:33N 37°06' E 023°42'8 7.8
2016-Aug-20 02:33N 36°59' E 023°43'7 7.4
2016-Aug-20 01:33N 36°51' E 023°45'8 7.7
2016-Aug-20 00:33N 36°44' E 023°47'8 8.4
2016-Aug-19 23:33N 36°35' E 023°48'8 7.8
2016-Aug-19 22:33N 36°28' E 023°50'8 7.6
2016-Aug-19 21:32N 36°20' E 023°52'8 8.0
2016-Aug-19 20:33N 36°12' E 023°54'40 2.3
2016-Aug-19 03:06N 35°33' E 024°04'0 0.0
2016-Aug-19 02:22N 35°33' E 024°04'0 0.0
2016-Aug-19 01:33N 35°33' E 024°04'0 0.0
2016-Aug-19 00:33N 35°33' E 024°04'0 0.0
2016-Aug-18 23:34N 35°33' E 024°04'0 0.0
2016-Aug-18 22:32N 35°33' E 024°04'0 0.0
2016-Aug-18 21:33N 35°33' E 024°04'0 0.0
2016-Aug-18 20:33N 35°33' E 024°04'0 0.0
2016-Aug-18 19:28N 35°33' E 024°04'0 0.0
2016-Aug-18 18:34N 35°33' E 024°04'27 6.8
2016-Aug-18 14:32N 35°60' E 023°57'7 7.2
2016-Aug-18 13:33N 36°07' E 023°55'8 7.7
2016-Aug-18 12:33N 36°15' E 023°53'8 7.7
2016-Aug-18 11:34N 36°22' E 023°51'8 7.7
2016-Aug-18 10:33N 36°30' E 023°50'8 7.6
2016-Aug-18 09:33N 36°37' E 023°48'7 7.5
2016-Aug-18 08:33N 36°44' E 023°46'7 7.3
2016-Aug-18 07:34N 36°52' E 023°45'8 7.8
2016-Aug-18 06:33N 36°59' E 023°44'8 8.0
2016-Aug-18 05:33N 37°07' E 023°43'8 7.8
2016-Aug-18 04:33N 37°15' E 023°40'7 7.5
2016-Aug-18 03:34N 37°22' E 023°38'8 7.5
2016-Aug-18 02:33N 37°29' E 023°36'8 7.6
2016-Aug-18 01:33N 37°37' E 023°33'8 7.9
2016-Aug-18 00:34N 37°39' E 023°24'6 6.3
2016-Aug-17 23:34N 37°43' E 023°17'8 7.9
2016-Aug-17 22:33N 37°50' E 023°12'7 7.1
2016-Aug-17 21:33N 37°55' E 023°06'0 0.0
2016-Aug-17 07:22N 37°55' E 023°05'0 0.0
2016-Aug-17 06:19N 37°55' E 023°05'0 0.0
2016-Aug-17 05:31N 37°55' E 023°05'0 0.0
2016-Aug-17 04:28N 37°55' E 023°05'0 0.0
2016-Aug-17 03:33N 37°55' E 023°05'1 0.7
2016-Aug-17 02:31N 37°54' E 023°06'6 6.7
2016-Aug-17 01:33N 37°50' E 023°12'7 7.3
2016-Aug-17 00:33N 37°44' E 023°17'6 5.8
2016-Aug-16 23:33N 37°39' E 023°21'7 7.4
2016-Aug-16 22:34N 37°38' E 023°30'6 6.2
2016-Aug-16 21:33N 37°33' E 023°35'7 7.0
2016-Aug-16 20:33N 37°26' E 023°37'7 7.1
2016-Aug-16 19:34N 37°19' E 023°39'7 6.9
2016-Aug-16 18:33N 37°12' E 023°40'7 6.5
2016-Aug-16 17:33N 37°06' E 023°42'7 6.6
2016-Aug-16 16:33N 36°59' E 023°43'  
Track history (hours):
 
Tides and Currents Weather Stations Pressure Air Temp Water Temp Dewpoint Dewpoint Depression Visibility Wind Speed Wind Dir Waves Ship Positions

M/T Arcadia

Last reported at 2016-Aug-24 15:05 UTC. Time now 2016-Aug-27 06:24 UTC.
Position N 37°10' E 023°39'.

Length 76 m; draft 4.7 m.

Type: Tanker. MMSI: 240560000.

Date/timePositionNaut miles runAvg speedWind from/ knotsBaromVisibWave heightAir tempDewpointWater temp
2016-Aug-24 15:05N 37°10' E 023°39'4 7.7
2016-Aug-24 14:34N 37°14' E 023°38'8 7.9
2016-Aug-24 13:33N 37°22' E 023°36'8 8.1
2016-Aug-24 12:33N 37°29' E 023°34'8 7.8
2016-Aug-24 11:33N 37°36' E 023°28'8 7.7
2016-Aug-24 10:34N 37°40' E 023°20'8 7.7
2016-Aug-24 09:33N 37°46' E 023°14'8 8.1
2016-Aug-24 08:33N 37°53' E 023°08'3 0.2
2016-Aug-23 15:24N 37°55' E 023°05'0 0.5
2016-Aug-23 14:33N 37°55' E 023°06'0 0.1
2016-Aug-23 13:33N 37°55' E 023°06'6 6.1
2016-Aug-23 12:33N 37°50' E 023°11'9 8.9
2016-Aug-23 11:34N 37°43' E 023°17'8 7.7
2016-Aug-23 10:34N 37°38' E 023°25'9 8.7
2016-Aug-23 09:34N 37°32' E 023°32'8 8.2
2016-Aug-23 08:33N 37°24' E 023°36'8 7.9
2016-Aug-23 07:34N 37°17' E 023°39'8 7.5
2016-Aug-23 06:27N 37°08' E 023°41'7 7.3
2016-Aug-23 05:29N 37°01' E 023°42'7 7.7
2016-Aug-23 04:32N 36°54' E 023°44'8 8.1
2016-Aug-23 03:33N 36°46' E 023°46'8 8.2
2016-Aug-23 02:33N 36°38' E 023°48'9 8.4
2016-Aug-23 01:31N 36°30' E 023°50'40 1.2
2016-Aug-21 16:24N 37°09' E 023°41'6 7.2
2016-Aug-21 15:33N 37°15' E 023°39'7 7.2
2016-Aug-21 14:33N 37°22' E 023°37'8 7.6
2016-Aug-21 13:33N 37°29' E 023°36'8 7.7
2016-Aug-21 12:33N 37°37' E 023°34'7 7.5
2016-Aug-21 11:33N 37°39' E 023°25'6 6.5
2016-Aug-21 10:33N 37°42' E 023°17'8 7.8
2016-Aug-21 09:33N 37°49' E 023°12'8 7.7
2016-Aug-21 08:33N 37°54' E 023°06'1 0.1
2016-Aug-20 16:33N 37°55' E 023°05'0 0.0
2016-Aug-20 15:33N 37°55' E 023°05'0 0.0
2016-Aug-20 14:33N 37°55' E 023°05'1 0.8
2016-Aug-20 13:33N 37°55' E 023°06'0 0.0
2016-Aug-20 12:33N 37°55' E 023°06'0 0.0
2016-Aug-20 11:33N 37°55' E 023°06'1 0.9
2016-Aug-20 10:33N 37°54' E 023°07'9 9.0
2016-Aug-20 09:33N 37°47' E 023°14'9 8.6
2016-Aug-20 08:33N 37°40' E 023°20'8 8.2
2016-Aug-20 07:34N 37°35' E 023°29'8 7.7
2016-Aug-20 06:33N 37°29' E 023°35'8 8.1
2016-Aug-20 05:33N 37°21' E 023°37'8 7.9
2016-Aug-20 04:33N 37°14' E 023°40'8 7.7
2016-Aug-20 03:33N 37°06' E 023°42'8 7.8
2016-Aug-20 02:33N 36°59' E 023°43'7 7.4
2016-Aug-20 01:33N 36°51' E 023°45'8 7.7
2016-Aug-20 00:33N 36°44' E 023°47'8 8.4
2016-Aug-19 23:33N 36°35' E 023°48'8 7.8
2016-Aug-19 22:33N 36°28' E 023°50'8 7.6
2016-Aug-19 21:32N 36°20' E 023°52'8 8.0
2016-Aug-19 20:33N 36°12' E 023°54'40 2.3
2016-Aug-19 03:06N 35°33' E 024°04'0 0.0
2016-Aug-19 02:22N 35°33' E 024°04'0 0.0
2016-Aug-19 01:33N 35°33' E 024°04'0 0.0
2016-Aug-19 00:33N 35°33' E 024°04'0 0.0
2016-Aug-18 23:34N 35°33' E 024°04'0 0.0
2016-Aug-18 22:32N 35°33' E 024°04'0 0.0
2016-Aug-18 21:33N 35°33' E 024°04'0 0.0
2016-Aug-18 20:33N 35°33' E 024°04'0 0.0
2016-Aug-18 19:28N 35°33' E 024°04'0 0.0
2016-Aug-18 18:34N 35°33' E 024°04'27 6.8
2016-Aug-18 14:32N 35°60' E 023°57'7 7.2
2016-Aug-18 13:33N 36°07' E 023°55'8 7.7
2016-Aug-18 12:33N 36°15' E 023°53'8 7.7
2016-Aug-18 11:34N 36°22' E 023°51'8 7.7
2016-Aug-18 10:33N 36°30' E 023°50'8 7.6
2016-Aug-18 09:33N 36°37' E 023°48'7 7.5
2016-Aug-18 08:33N 36°44' E 023°46'7 7.3
2016-Aug-18 07:34N 36°52' E 023°45'8 7.8
2016-Aug-18 06:33N 36°59' E 023°44'8 8.0
2016-Aug-18 05:33N 37°07' E 023°43'8 7.8
2016-Aug-18 04:33N 37°15' E 023°40'7 7.5
2016-Aug-18 03:34N 37°22' E 023°38'8 7.5
2016-Aug-18 02:33N 37°29' E 023°36'8 7.6
2016-Aug-18 01:33N 37°37' E 023°33'8 7.9
2016-Aug-18 00:34N 37°39' E 023°24'6 6.3
2016-Aug-17 23:34N 37°43' E 023°17'8 7.9
2016-Aug-17 22:33N 37°50' E 023°12'7 7.1
2016-Aug-17 21:33N 37°55' E 023°06'0 0.0
2016-Aug-17 07:22N 37°55' E 023°05'0 0.0
2016-Aug-17 06:19N 37°55' E 023°05'0 0.0
2016-Aug-17 05:31N 37°55' E 023°05'0 0.0
2016-Aug-17 04:28N 37°55' E 023°05'0 0.0
2016-Aug-17 03:33N 37°55' E 023°05'1 0.7
2016-Aug-17 02:31N 37°54' E 023°06'6 6.7
2016-Aug-17 01:33N 37°50' E 023°12'7 7.3
2016-Aug-17 00:33N 37°44' E 023°17'6 5.8
2016-Aug-16 23:33N 37°39' E 023°21'7 7.4
2016-Aug-16 22:34N 37°38' E 023°30'6 6.2
2016-Aug-16 21:33N 37°33' E 023°35'7 7.0
2016-Aug-16 20:33N 37°26' E 023°37'7 7.1
2016-Aug-16 19:34N 37°19' E 023°39'7 6.9
2016-Aug-16 18:33N 37°12' E 023°40'7 6.5
2016-Aug-16 17:33N 37°06' E 023°42'7 6.6
2016-Aug-16 16:33N 36°59' E 023°43'  

Dump ship's entire track history